Time;durP1;ratioP1;P1;durP2;ratioP2;P2;SDS_P1;SDS_P2;PMS_P1;PMS_P2;Temp;Humidity;BMP_temperature;BMP_pressure;BME280_temperature;BME280_humidity;BME280_pressure;Samples;Min_cycle;Max_cycle;Signal;HPM_P1;HPM_P2
2021/06/05 00:02:33;;;;;;;9.07;5.53;;;;;;;20.65;60.51;98282.50;8499257;28;20400;-64
2021/06/05 00:06:36;;;;;;;8.37;6.30;;;;;;;20.62;60.73;98272.22;8482812;28;20202;-64
2021/06/05 00:10:42;;;;;;;9.23;6.10;;;;;;;20.60;60.62;98279.41;8482819;28;20198;-64
2021/06/05 00:14:44;;;;;;;8.17;6.20;;;;;;;20.53;60.72;98286.09;8482443;28;20222;-64
2021/06/05 00:18:49;;;;;;;7.03;6.33;;;;;;;20.51;60.51;98289.69;8482600;28;20201;-64
2021/06/05 00:22:51;;;;;;;6.47;5.47;;;;;;;20.47;60.90;98285.63;8482741;28;20389;-64
2021/06/05 00:26:54;;;;;;;7.23;5.63;;;;;;;20.45;61.18;98278.81;8487338;28;20251;-64
2021/06/05 00:30:57;;;;;;;10.50;5.90;;;;;;;20.44;60.93;98270.06;8488681;28;20197;-64
2021/06/05 00:35:01;;;;;;;10.60;6.13;;;;;;;20.47;60.93;98274.28;8488525;28;20537;-64
2021/06/05 00:39:04;;;;;;;7.27;5.70;;;;;;;20.45;60.71;98278.81;8488686;28;20198;-64
2021/06/05 00:43:07;;;;;;;7.80;6.20;;;;;;;20.33;61.02;98282.41;8488770;28;20511;-64
2021/06/05 00:47:09;;;;;;;9.27;6.10;;;;;;;20.03;61.99;98265.47;8488545;28;20198;-64
2021/06/05 00:51:13;;;;;;;11.57;6.07;;;;;;;20.16;60.69;98270.59;8488190;28;20546;-64
2021/06/05 00:55:18;;;;;;;7.30;6.23;;;;;;;19.83;61.91;98256.53;8488046;28;20259;-64
2021/06/05 00:59:22;;;;;;;10.03;6.40;;;;;;;19.86;61.22;98258.94;8488238;27;20252;-64
2021/06/05 01:03:25;;;;;;;8.97;6.13;;;;;;;19.97;61.09;98242.28;8522379;27;20201;-63
2021/06/05 01:07:30;;;;;;;10.90;6.10;;;;;;;19.82;61.76;98262.72;8521983;27;20208;-64
2021/06/05 01:11:39;;;;;;;10.20;6.23;;;;;;;19.58;62.80;98254.94;8521607;27;20201;-64
2021/06/05 01:15:47;;;;;;;10.77;6.50;;;;;;;19.59;62.58;98254.81;8521286;27;20231;-64
2021/06/05 01:19:53;;;;;;;8.77;6.53;;;;;;;19.75;62.20;98253.66;8521420;27;20196;-64
2021/06/05 01:24:07;;;;;;;7.93;6.17;;;;;;;19.87;61.83;98263.22;8521388;27;20209;-66
2021/06/05 01:28:13;;;;;;;7.93;5.90;;;;;;;19.89;61.80;98242.91;8520501;27;20382;-66
2021/06/05 01:32:16;;;;;;;9.03;6.50;;;;;;;19.83;61.92;98256.53;8517484;27;20189;-66
2021/06/05 01:36:19;;;;;;;7.00;5.57;;;;;;;19.91;61.54;98254.13;8519897;27;20216;-66
2021/06/05 01:40:23;;;;;;;13.37;6.10;;;;;;;19.81;61.97;98256.63;8521103;27;20204;-66
2021/06/05 01:44:28;;;;;;;7.93;6.40;;;;;;;19.80;61.61;98254.97;8520897;27;20220;-66
2021/06/05 01:48:30;;;;;;;7.97;5.80;;;;;;;19.84;61.38;98255.59;8520751;27;20197;-66
2021/06/05 01:52:34;;;;;;;9.40;6.00;;;;;;;19.83;61.80;98253.91;8520494;27;20216;-66
2021/06/05 01:56:39;;;;;;;11.30;6.20;;;;;;;19.80;61.66;98251.50;8520397;27;20236;-66
2021/06/05 02:00:45;;;;;;;7.97;6.60;;;;;;;19.80;61.47;98260.22;8519904;27;20197;-66
2021/06/05 02:04:48;;;;;;;9.67;6.57;;;;;;;19.65;61.75;98256.13;8520054;27;20208;-66
2021/06/05 02:08:50;;;;;;;8.80;6.03;;;;;;;19.65;61.66;98254.34;8519798;27;20203;-66
2021/06/05 02:12:54;;;;;;;10.37;6.57;;;;;;;19.62;62.19;98258.97;8519741;27;20393;-66
2021/06/05 02:17:00;;;;;;;7.20;6.37;;;;;;;19.73;61.79;98249.34;8519507;27;20235;-66
2021/06/05 02:21:06;;;;;;;7.73;6.10;;;;;;;19.76;62.01;98257.94;8519558;27;20204;-66
2021/06/05 02:25:11;;;;;;;8.57;6.57;;;;;;;19.73;62.09;98251.97;8519462;27;20342;-66
2021/06/05 02:29:16;;;;;;;10.27;7.20;;;;;;;19.65;62.59;98238.56;8519094;27;20197;-66
2021/06/05 02:33:20;;;;;;;8.03;6.83;;;;;;;19.44;63.27;98229.69;8518979;27;20208;-66
2021/06/05 02:37:25;;;;;;;9.87;7.17;;;;;;;18.86;65.55;98220.03;8518760;27;20229;-66
2021/06/05 02:41:28;;;;;;;9.93;8.03;;;;;;;18.81;66.68;98216.91;8518825;27;20196;-66
2021/06/05 02:45:35;;;;;;;8.17;6.97;;;;;;;19.31;64.16;98224.56;8518365;27;20215;-66
2021/06/05 02:49:40;;;;;;;7.20;6.50;;;;;;;19.53;63.20;98215.88;8517568;27;20400;-66
2021/06/05 02:53:42;;;;;;;8.40;6.37;;;;;;;19.56;62.98;98231.41;8518340;27;20246;-66
2021/06/05 02:57:45;;;;;;;10.87;6.20;;;;;;;19.51;62.82;98221.25;8518380;27;20523;-66
2021/06/05 03:01:55;;;;;;;8.13;6.40;;;;;;;19.46;62.80;98226.03;8518066;27;20228;-66
2021/06/05 03:05:59;;;;;;;7.20;6.50;;;;;;;19.44;62.58;98230.56;8517951;27;20204;-66
2021/06/05 03:10:02;;;;;;;9.23;7.20;;;;;;;19.40;62.22;98221.25;8517982;27;20204;-66
2021/06/05 03:14:05;;;;;;;7.73;7.00;;;;;;;19.44;62.72;98227.06;8517823;27;20231;-66
2021/06/05 03:18:08;;;;;;;7.33;6.47;;;;;;;19.51;62.31;98225.66;8517902;27;20204;-65
2021/06/05 03:22:11;;;;;;;7.23;6.27;;;;;;;19.52;62.52;98219.47;8517530;27;20197;-66
2021/06/05 03:26:15;;;;;;;10.53;7.00;;;;;;;19.52;62.55;98220.28;8517602;27;20563;-66
2021/06/05 03:30:19;;;;;;;8.93;7.37;;;;;;;19.49;62.64;98223.13;8517297;27;20248;-66
2021/06/05 03:34:21;;;;;;;11.47;7.80;;;;;;;19.34;63.27;98222.53;8517456;27;20228;-66
2021/06/05 03:38:27;;;;;;;9.87;6.87;;;;;;;19.42;63.21;98218.47;8517536;27;20401;-66
2021/06/05 03:42:29;;;;;;;8.63;6.87;;;;;;;19.56;62.76;98215.63;8517081;28;20197;-66
2021/06/05 03:46:32;;;;;;;11.00;7.00;;;;;;;19.67;62.21;98207.75;8517223;28;20491;-65
2021/06/05 03:50:37;;;;;;;7.73;6.80;;;;;;;19.60;62.33;98222.31;8517210;28;20197;-66
2021/06/05 03:54:41;;;;;;;10.47;6.20;;;;;;;19.54;62.43;98214.94;8516740;28;20255;-66
2021/06/05 03:58:45;;;;;;;8.70;7.00;;;;;;;19.64;62.45;98229.00;8518099;27;20196;-66
2021/06/05 04:02:47;;;;;;;9.40;7.27;;;;;;;19.51;63.45;98212.53;8523726;27;20208;-65
2021/06/05 04:06:50;;;;;;;7.97;6.30;;;;;;;19.68;62.91;98216.47;8523783;27;20292;-67
2021/06/05 04:10:54;;;;;;;9.63;7.00;;;;;;;19.69;62.88;98229.50;8523548;27;20204;-66
2021/06/05 04:14:57;;;;;;;8.93;7.30;;;;;;;19.73;63.02;98230.97;8523246;27;20417;-66
2021/06/05 04:18:59;;;;;;;8.10;7.17;;;;;;;19.80;62.74;98222.59;8523267;27;20201;-66
2021/06/05 04:23:02;;;;;;;8.60;7.70;;;;;;;19.84;62.86;98226.69;8523356;27;20197;-66
2021/06/05 04:27:08;;;;;;;11.17;8.40;;;;;;;19.88;62.82;98231.56;8523192;27;20540;-66
2021/06/05 04:31:11;;;;;;;11.90;8.43;;;;;;;19.94;62.89;98226.78;8523170;27;20197;-66
2021/06/05 04:35:14;;;;;;;11.03;8.07;;;;;;;19.98;62.86;98223.78;8523085;27;20224;-66
2021/06/05 04:39:16;;;;;;;14.40;8.17;;;;;;;20.07;62.70;98232.75;8522797;27;20294;-66
2021/06/05 04:43:21;;;;;;;13.17;7.70;;;;;;;20.10;62.86;98240.38;8522939;27;20224;-66
2021/06/05 04:47:23;;;;;;;11.00;8.20;;;;;;;20.10;63.08;98248.25;8522458;27;20211;-66
2021/06/05 04:51:28;;;;;;;11.10;9.03;;;;;;;20.18;63.11;98250.28;8522343;27;20200;-66
2021/06/05 04:55:31;;;;;;;9.40;7.90;;;;;;;20.22;63.29;98263.09;8521537;27;20293;-66
2021/06/05 04:59:35;;;;;;;9.07;7.90;;;;;;;20.21;63.53;98257.94;8520824;27;20189;-66
2021/06/05 05:03:37;;;;;;;8.83;7.90;;;;;;;20.20;63.63;98269.41;8521171;27;20189;-66
2021/06/05 05:07:40;;;;;;;11.20;8.50;;;;;;;20.13;63.83;98263.81;8521176;27;20193;-66
2021/06/05 05:11:43;;;;;;;11.13;9.03;;;;;;;20.23;63.81;98274.44;8520314;27;20189;-66
2021/06/05 05:15:48;;;;;;;12.20;9.80;;;;;;;20.23;63.72;98269.16;8521052;27;20223;-66
2021/06/05 05:19:50;;;;;;;12.30;9.60;;;;;;;20.33;63.63;98270.09;8520822;27;20196;-66
2021/06/05 05:23:55;;;;;;;12.07;9.93;;;;;;;20.18;64.62;98258.16;8520557;27;20190;-66
2021/06/05 05:27:58;;;;;;;11.77;10.57;;;;;;;20.39;64.16;98277.53;8517905;27;20232;-66
2021/06/05 05:32:02;;;;;;;13.77;10.80;;;;;;;20.40;64.59;98271.28;8520935;27;20499;-66
2021/06/05 05:36:06;;;;;;;12.50;10.73;;;;;;;20.59;63.79;98277.72;8520756;27;20401;-66
2021/06/05 05:40:11;;;;;;;12.33;10.90;;;;;;;20.62;64.12;98280.97;8520786;27;20273;-66
2021/06/05 05:44:14;;;;;;;13.20;11.17;;;;;;;20.65;63.97;98280.69;8520613;27;20205;-66
2021/06/05 05:48:18;;;;;;;12.83;10.90;;;;;;;20.67;64.25;98276.16;8520705;27;20282;-66
2021/06/05 05:52:20;;;;;;;10.90;9.83;;;;;;;20.78;63.84;98290.25;8520517;27;20210;-66
2021/06/05 05:56:27;;;;;;;10.83;9.83;;;;;;;20.77;64.23;98286.78;8519840;27;20239;-66
2021/06/05 06:00:31;;;;;;;9.80;8.90;;;;;;;20.96;63.30;98274.75;8519872;27;20199;-66
2021/06/05 06:04:35;;;;;;;11.77;9.57;;;;;;;20.98;63.67;98275.44;8519726;27;20205;-66
2021/06/05 06:08:38;;;;;;;9.97;8.93;;;;;;;21.19;63.44;98278.97;8520010;27;20200;-66
2021/06/05 06:12:41;;;;;;;10.77;9.03;;;;;;;21.24;63.29;98281.19;8519594;27;20208;-66
2021/06/05 06:16:44;;;;;;;9.43;8.53;;;;;;;21.56;62.59;98288.25;8519443;27;20220;-65
2021/06/05 06:20:50;;;;;;;11.27;8.63;;;;;;;21.76;61.86;98283.91;8519626;27;20209;-65
2021/06/05 06:24:52;;;;;;;10.00;8.50;;;;;;;21.60;62.62;98290.47;8519007;27;20204;-65
2021/06/05 06:28:56;;;;;;;9.77;7.43;;;;;;;21.67;62.50;98283.72;8519063;27;20205;-66
2021/06/05 06:32:58;;;;;;;9.97;7.83;;;;;;;21.73;62.09;98287.63;8519146;27;20208;-66
2021/06/05 06:37:06;;;;;;;9.17;7.47;;;;;;;21.74;62.14;98289.31;8518951;27;20225;-65
2021/06/05 06:41:12;;;;;;;10.80;6.90;;;;;;;21.82;62.43;98288.66;8519079;27;20361;-66
2021/06/05 06:45:14;;;;;;;13.70;7.43;;;;;;;21.97;61.89;98284.72;8518648;27;20276;-65
2021/06/05 06:49:20;;;;;;;8.43;6.40;;;;;;;22.56;60.77;98290.19;8518746;27;20206;-65
2021/06/05 06:53:24;;;;;;;9.67;5.43;;;;;;;22.93;58.91;98290.38;8518478;27;20513;-66
2021/06/05 06:57:26;;;;;;;6.37;4.63;;;;;;;22.99;58.24;98286.34;8518039;27;20231;-65
2021/06/05 07:01:29;;;;;;;5.03;3.63;;;;;;;23.25;58.11;98289.28;8517491;27;20248;-65
2021/06/05 07:05:31;;;;;;;5.57;4.13;;;;;;;23.34;57.93;98283.16;8517894;27;20200;-66
2021/06/05 07:09:35;;;;;;;6.13;4.53;;;;;;;23.43;57.56;98290.22;8517997;27;20396;-65
2021/06/05 07:13:38;;;;;;;8.00;4.13;;;;;;;23.60;56.89;98288.66;8518032;27;20201;-65
2021/06/05 07:17:40;;;;;;;6.07;4.10;;;;;;;23.97;56.31;98293.19;8517564;27;20225;-65
2021/06/05 07:21:43;;;;;;;6.13;3.80;;;;;;;24.40;54.86;98289.06;8517617;27;20211;-66
2021/06/05 07:25:47;;;;;;;7.17;3.80;;;;;;;24.41;55.08;98284.63;8517190;27;20236;-66
2021/06/05 07:29:49;;;;;;;5.07;3.77;;;;;;;23.79;55.24;98293.09;8517514;27;20197;-66
2021/06/05 07:33:51;;;;;;;5.63;3.60;;;;;;;24.11;54.70;98296.34;8516842;27;20517;-65
2021/06/05 07:37:54;;;;;;;7.70;3.90;;;;;;;24.62;53.57;98297.63;8517347;27;20548;-65
2021/06/05 07:41:59;;;;;;;5.87;4.00;;;;;;;25.16;52.49;98301.13;8516996;28;20189;-66
2021/06/05 07:46:03;;;;;;;5.17;3.93;;;;;;;25.29;52.24;98297.28;8517090;28;20212;-66
2021/06/05 07:50:09;;;;;;;8.73;4.37;;;;;;;25.32;52.01;98299.63;8516968;28;20200;-65
2021/06/05 07:54:12;;;;;;;4.93;3.67;;;;;;;25.66;51.56;98299.69;8517020;28;20229;-66
2021/06/05 07:58:16;;;;;;;6.70;4.27;;;;;;;25.88;50.26;98287.75;8516872;28;20228;-66
2021/06/05 08:02:19;;;;;;;8.43;4.73;;;;;;;25.76;50.41;98294.31;8516557;28;20391;-66
2021/06/05 08:06:22;;;;;;;5.03;3.77;;;;;;;25.83;51.06;98290.03;8516825;28;20201;-66
2021/06/05 08:10:25;;;;;;;5.73;3.60;;;;;;;26.36;49.45;98290.81;8516934;28;20382;-67
2021/06/05 08:14:29;;;;;;;7.07;4.07;;;;;;;26.46;48.38;98286.16;8516896;28;20209;-68
2021/06/05 08:18:32;;;;;;;5.30;3.50;;;;;;;26.52;48.68;98284.69;8516351;28;20244;-67
2021/06/05 08:22:35;;;;;;;5.87;3.37;;;;;;;26.39;49.13;98285.19;8516501;28;20207;-68
2021/06/05 08:26:39;;;;;;;6.90;3.57;;;;;;;26.19;49.31;98279.28;8516221;28;20245;-67
2021/06/05 08:30:45;;;;;;;6.13;3.27;;;;;;;26.65;48.37;98279.78;8516311;28;20383;-67
2021/06/05 08:34:47;;;;;;;7.07;3.20;;;;;;;26.99;47.45;98278.03;8516771;28;20198;-67
2021/06/05 08:38:49;;;;;;;6.07;2.90;;;;;;;27.02;47.00;98275.88;8516393;28;20234;-67
2021/06/05 08:42:55;;;;;;;6.10;2.50;;;;;;;27.25;45.63;98275.25;8516094;28;20200;-67
2021/06/05 08:47:01;;;;;;;5.60;2.53;;;;;;;27.40;45.64;98275.41;8519249;27;20226;-67
2021/06/05 08:51:12;;;;;;;7.77;2.90;;;;;;;27.54;44.83;98273.88;8522523;27;20198;-67
2021/06/05 08:55:21;;;;;;;4.20;1.90;;;;;;;27.11;43.94;98277.53;8522178;27;20243;-67
2021/06/05 08:59:25;;;;;;;3.97;2.10;;;;;;;27.43;43.28;98281.19;8522168;27;20202;-67
2021/06/05 09:03:30;;;;;;;4.17;2.10;;;;;;;27.83;41.38;98278.63;8521805;27;20201;-67
2021/06/05 09:07:32;;;;;;;5.60;2.10;;;;;;;27.95;41.92;98277.31;8522061;27;20202;-67
2021/06/05 09:11:35;;;;;;;6.50;2.30;;;;;;;27.97;41.50;98282.44;8521977;27;20381;-66
2021/06/05 09:15:37;;;;;;;4.03;2.17;;;;;;;27.99;41.38;98280.47;8521255;27;20230;-67
2021/06/05 09:19:41;;;;;;;7.00;2.10;;;;;;;28.24;40.88;98279.34;8521498;27;20235;-67
2021/06/05 09:23:43;;;;;;;3.00;1.90;;;;;;;28.44;41.44;98274.44;8521179;27;20206;-67
2021/06/05 09:27:46;;;;;;;4.63;1.93;;;;;;;28.07;39.90;98277.75;8521092;27;20237;-67
2021/06/05 09:31:59;;;;;;;4.63;2.03;;;;;;;28.45;39.31;98273.41;8520757;27;20209;-67
2021/06/05 09:36:29;;;;;;;2.40;1.43;;;;;;;28.80;38.68;98273.06;8520785;27;20230;-66
2021/06/05 09:40:34;;;;;;;7.03;2.00;;;;;;;28.87;38.56;98275.88;8520855;27;20410;-67
2021/06/05 09:44:43;;;;;;;6.67;2.00;;;;;;;29.07;37.80;98269.03;8520778;27;20208;-67
2021/06/05 09:48:47;;;;;;;3.83;2.00;;;;;;;29.21;38.26;98264.81;8521043;27;20200;-67
2021/06/05 09:52:52;;;;;;;4.50;1.90;;;;;;;29.43;37.95;98271.09;8520192;27;20211;-67
2021/06/05 09:56:55;;;;;;;5.50;2.10;;;;;;;29.01;38.23;98273.25;8519411;27;20231;-67
2021/06/05 10:01:12;;;;;;;4.23;2.10;;;;;;;28.70;39.52;98270.66;8520128;27;20208;-68
2021/06/05 10:05:28;;;;;;;4.40;1.80;;;;;;;28.95;38.76;98257.16;8519793;27;20489;-67
2021/06/05 10:09:40;;;;;;;5.20;2.50;;;;;;;28.57;39.91;98257.91;8519909;27;20208;-66
2021/06/05 10:13:45;;;;;;;7.00;2.00;;;;;;;27.69;41.95;98245.59;8519506;27;20398;-66
2021/06/05 10:17:53;;;;;;;2.20;1.70;;;;;;;27.59;41.36;98240.47;8519424;27;20224;-67
2021/06/05 10:21:56;;;;;;;4.63;1.60;;;;;;;28.63;37.81;98248.38;8519778;27;20505;-66
2021/06/05 10:26:01;;;;;;;3.77;1.60;;;;;;;29.20;37.65;98250.63;8519405;27;20237;-67
2021/06/05 10:30:07;;;;;;;3.80;1.97;;;;;;;29.12;36.93;98252.53;8519144;27;20398;-67
2021/06/05 10:34:13;;;;;;;5.93;1.70;;;;;;;29.21;36.80;98251.47;8518861;27;20200;-67
2021/06/05 10:38:35;;;;;;;7.47;2.00;;;;;;;29.35;36.94;98241.84;8518739;27;20263;-67
2021/06/05 10:42:41;;;;;;;3.90;2.17;;;;;;;29.76;36.32;98231.59;8518673;27;20213;-67
2021/06/05 10:46:51;;;;;;;3.60;1.70;;;;;;;28.60;38.17;98236.25;8518502;27;20403;-67
2021/06/05 10:51:03;;;;;;;3.97;1.70;;;;;;;27.85;40.21;98229.56;8518652;27;20409;-67
2021/06/05 10:55:20;;;;;;;5.10;2.10;;;;;;;27.49;41.29;98218.50;8517633;27;20216;-67
2021/06/05 10:59:44;;;;;;;4.97;1.77;;;;;;;27.90;40.52;98213.13;8518172;27;20430;-67
2021/06/05 11:03:53;;;;;;;5.30;2.23;;;;;;;27.93;40.78;98199.47;8518107;27;20198;-67
2021/06/05 11:08:28;;;;;;;6.43;2.60;;;;;;;27.46;42.33;98206.41;8517576;27;20204;-67
2021/06/05 11:12:49;;;;;;;6.40;1.73;;;;;;;27.54;41.59;98202.88;8517667;27;20198;-66
2021/06/05 11:17:33;;;;;;;4.07;1.63;;;;;;;27.09;42.18;98207.78;8517964;27;20443;-67
2021/06/05 11:21:44;;;;;;;6.53;2.27;;;;;;;27.20;42.96;98200.44;8517828;27;20448;-66
2021/06/05 11:25:49;;;;;;;6.40;1.77;;;;;;;27.62;42.27;98188.72;8517740;27;20376;-67
2021/06/05 11:29:57;;;;;;;3.60;1.80;;;;;;;28.30;40.98;98191.78;8517685;27;20206;-66
2021/06/05 11:34:01;;;;;;;4.87;1.67;;;;;;;28.95;39.99;98193.19;8498820;27;20200;-66
2021/06/05 11:38:05;;;;;;;6.33;1.60;;;;;;;29.29;38.10;98198.06;8517005;27;20238;-67
2021/06/05 11:42:47;;;;;;;4.90;1.80;;;;;;;29.61;37.27;98188.88;8517356;27;20198;-67
2021/06/05 11:46:53;;;;;;;3.60;1.40;;;;;;;30.01;36.34;98193.94;8517422;28;20203;-67
2021/06/05 11:51:30;;;;;;;4.63;1.73;;;;;;;29.35;37.77;98201.84;8516213;28;20183;-67
2021/06/05 11:55:44;;;;;;;4.27;1.53;;;;;;;28.94;37.76;98197.69;8509361;28;20242;-67
2021/06/05 11:59:47;;;;;;;6.37;2.30;;;;;;;29.81;35.70;98191.00;8513183;28;20210;-69
2021/06/05 12:03:57;;;;;;;4.10;1.90;;;;;;;29.54;37.14;98201.28;8515798;28;20199;-67
2021/06/05 12:07:59;;;;;;;6.10;2.30;;;;;;;28.52;38.94;98208.81;8515935;28;20200;-67
2021/06/05 12:12:10;;;;;;;5.97;1.90;;;;;;;28.28;39.68;98211.44;8516112;28;20601;-68
2021/06/05 12:16:15;;;;;;;5.40;2.00;;;;;;;27.64;41.77;98208.84;8516521;28;20242;-66
2021/06/05 12:20:24;;;;;;;9.23;2.30;;;;;;;27.48;42.61;98212.38;8518450;27;20222;-66
2021/06/05 12:24:27;;;;;;;6.40;2.17;;;;;;;27.40;42.96;98217.72;8522984;27;20320;-66
2021/06/05 12:28:33;;;;;;;4.87;1.77;;;;;;;27.21;43.08;98213.56;8523696;27;20239;-65
2021/06/05 12:32:36;;;;;;;3.53;2.07;;;;;;;27.08;43.46;98216.72;8522935;27;20267;-65
2021/06/05 12:36:41;;;;;;;3.77;2.07;;;;;;;27.08;43.31;98215.91;8521463;27;20224;-65
2021/06/05 12:40:45;;;;;;;6.33;2.17;;;;;;;27.43;42.76;98200.59;8521721;27;20191;-65
2021/06/05 12:44:50;;;;;;;5.53;2.30;;;;;;;27.64;42.41;98203.50;8521433;27;20199;-65
2021/06/05 12:48:55;;;;;;;3.40;1.80;;;;;;;27.69;41.96;98203.00;8522512;27;20388;-65
2021/06/05 12:52:58;;;;;;;5.33;2.50;;;;;;;27.77;43.29;98191.50;8522462;27;20197;-65
2021/06/05 12:57:23;;;;;;;7.27;2.40;;;;;;;28.11;41.62;98188.56;8523343;27;20229;-66
2021/06/05 13:01:31;;;;;;;5.80;1.93;;;;;;;28.56;40.65;98179.00;8521847;27;20206;-65
2021/06/05 13:05:35;;;;;;;5.20;2.20;;;;;;;28.74;40.45;98156.53;8522932;27;20291;-67
2021/06/05 13:09:40;;;;;;;5.20;2.10;;;;;;;29.08;39.70;98160.59;8521986;27;20215;-65
2021/06/05 13:14:08;;;;;;;8.03;2.40;;;;;;;28.45;40.79;98150.09;8521492;27;20206;-66
2021/06/05 13:18:13;;;;;;;10.60;2.20;;;;;;;28.95;39.83;98135.34;8521559;27;20228;-65
2021/06/05 13:22:22;;;;;;;3.93;2.07;;;;;;;28.17;40.24;98147.91;8521954;27;20194;-65
2021/06/05 13:26:28;;;;;;;4.50;2.20;;;;;;;28.79;39.51;98133.69;8521578;27;20417;-65
2021/06/05 13:30:36;;;;;;;5.87;2.30;;;;;;;27.64;41.15;98129.03;8521016;27;20197;-67
2021/06/05 14:45:54;;;;;;;4.90;1.97;;;;;;;28.33;38.99;98141.69;8460970;27;20266;-66
2021/06/05 14:49:57;;;;;;;10.90;2.30;;;;;;;27.80;39.24;98141.44;8484495;28;20202;-66
2021/06/05 14:53:59;;;;;;;8.50;2.30;;;;;;;28.22;39.30;98144.75;8484375;28;20395;-67
2021/06/05 14:58:02;;;;;;;13.07;2.60;;;;;;;28.69;38.10;98132.28;8484503;28;20339;-66
2021/06/05 15:02:06;;;;;;;5.83;2.13;;;;;;;28.45;38.12;98128.78;8475641;28;20200;-66
2021/06/05 15:06:08;;;;;;;5.20;1.90;;;;;;;28.43;38.63;98120.13;8483913;28;20267;-66
2021/06/05 15:10:11;;;;;;;3.60;2.10;;;;;;;28.37;39.02;98124.34;8483398;28;20194;-66
2021/06/05 15:14:13;;;;;;;7.43;2.47;;;;;;;28.56;38.80;98114.22;8483627;28;20200;-66
2021/06/05 15:18:17;;;;;;;3.70;1.90;;;;;;;28.59;38.50;98113.88;8483432;28;20235;-67
2021/06/05 15:22:20;;;;;;;7.70;2.10;;;;;;;28.51;38.84;98122.72;8483225;28;20199;-66
2021/06/05 15:31:44;;;;;;;3.13;1.83;;;;;;;28.23;38.43;98109.94;8465114;28;20561;-66
2021/06/05 15:35:48;;;;;;;6.57;1.97;;;;;;;28.32;38.31;98107.22;8483401;28;20199;-66
2021/06/05 15:39:50;;;;;;;4.87;1.90;;;;;;;27.95;39.11;98116.78;8483059;28;20230;-66
2021/06/05 15:43:53;;;;;;;5.17;1.97;;;;;;;27.84;38.88;98110.00;8483612;28;20206;-66
2021/06/05 15:47:58;;;;;;;8.23;2.50;;;;;;;27.61;39.46;98110.78;8482796;28;20239;-66
2021/06/05 15:52:05;;;;;;;6.37;2.50;;;;;;;27.34;40.61;98109.41;8483480;28;20267;-66
2021/06/05 15:56:08;;;;;;;5.10;2.73;;;;;;;27.22;41.31;98098.25;8487050;28;20560;-66
2021/06/05 16:00:15;;;;;;;4.87;2.20;;;;;;;27.26;40.64;98091.63;8489757;28;20224;-68
2021/06/05 16:04:19;;;;;;;8.30;1.93;;;;;;;27.24;40.75;98095.41;8490062;28;20498;-67
2021/06/05 16:08:23;;;;;;;4.03;2.20;;;;;;;27.29;41.20;98091.28;8489943;28;20384;-67
2021/06/05 16:12:26;;;;;;;5.13;2.10;;;;;;;27.03;41.47;98088.00;8488740;28;20217;-67
2021/06/05 16:16:29;;;;;;;5.30;2.10;;;;;;;26.83;42.03;98093.69;8489317;28;20397;-66
2021/06/05 16:20:32;;;;;;;5.73;2.40;;;;;;;26.96;42.11;98095.00;8489323;28;20241;-67
2021/06/05 16:24:36;;;;;;;4.40;1.97;;;;;;;26.86;42.47;98088.03;8489180;28;20393;-66
2021/06/05 16:28:38;;;;;;;7.03;2.10;;;;;;;26.58;43.32;98100.84;8488761;28;20202;-66
2021/06/05 16:32:41;;;;;;;5.00;2.07;;;;;;;26.40;43.42;98102.81;8488852;28;20207;-66
2021/06/05 16:36:44;;;;;;;3.13;1.60;;;;;;;26.19;42.88;98104.13;8488163;28;20262;-66
2021/06/05 16:40:49;;;;;;;5.57;1.63;;;;;;;25.89;43.83;98114.31;8487998;28;20197;-66
2021/06/05 16:44:52;;;;;;;4.47;1.80;;;;;;;25.85;44.29;98122.75;8488336;28;20193;-66
2021/06/05 16:48:54;;;;;;;4.07;2.13;;;;;;;25.42;45.19;98140.47;8488250;28;20204;-66
2021/06/05 16:52:58;;;;;;;5.43;3.70;;;;;;;25.22;45.96;98156.56;8488008;28;20197;-66
2021/06/05 16:57:01;;;;;;;7.63;2.30;;;;;;;24.89;47.33;98161.66;8487176;28;20518;-67
2021/06/05 17:01:07;;;;;;;9.67;2.40;;;;;;;24.50;49.04;98167.28;8487163;28;20399;-67
2021/06/05 17:05:10;;;;;;;6.63;2.40;;;;;;;24.43;49.68;98173.28;8487151;28;20470;-67
2021/06/05 17:09:15;;;;;;;4.90;2.50;;;;;;;24.32;50.59;98161.97;8485939;28;20198;-67
2021/06/05 17:13:21;;;;;;;13.93;2.90;;;;;;;24.19;51.44;98164.97;8487136;28;20375;-66
2021/06/05 17:17:24;;;;;;;8.47;2.60;;;;;;;24.04;52.87;98173.56;8484367;28;20219;-66
2021/06/05 17:21:27;;;;;;;6.83;2.60;;;;;;;24.00;53.15;98155.34;8486533;28;20194;-67
2021/06/05 17:25:32;;;;;;;7.57;2.37;;;;;;;23.90;53.99;98165.16;8486454;28;20399;-67
2021/06/05 17:29:35;;;;;;;7.00;2.10;;;;;;;23.77;54.44;98156.69;8486707;28;20397;-66
2021/06/05 17:33:39;;;;;;;10.37;2.50;;;;;;;23.93;53.10;98150.78;8487084;28;20515;-66
2021/06/05 17:37:42;;;;;;;9.67;3.33;;;;;;;23.78;54.04;98143.38;8487133;28;20228;-66
2021/06/05 17:41:45;;;;;;;5.57;2.03;;;;;;;23.85;53.50;98135.66;8487020;28;20366;-66
2021/06/05 17:45:49;;;;;;;2.67;2.10;;;;;;;23.64;53.61;98132.41;8486574;28;20233;-67
2021/06/05 17:49:51;;;;;;;11.90;4.37;;;;;;;23.71;53.87;98155.47;8486412;28;20536;-67
2021/06/05 17:53:59;;;;;;;7.80;1.60;;;;;;;23.89;52.83;98160.00;8486370;28;20383;-66
2021/06/05 17:58:02;;;;;;;8.03;1.77;;;;;;;23.90;52.64;98178.38;8486151;28;20232;-67
2021/06/05 18:02:06;;;;;;;2.40;0.90;;;;;;;23.80;53.12;98169.66;8485748;28;20369;-72
2021/06/05 18:06:10;;;;;;;3.73;1.20;;;;;;;23.64;53.55;98172.91;8486064;28;20481;-71
2021/06/05 18:10:13;;;;;;;4.40;1.10;;;;;;;23.51;54.29;98186.44;8485837;28;20407;-71
2021/06/05 18:14:19;;;;;;;2.77;1.20;;;;;;;23.27;55.20;98191.41;8485747;28;20209;-69
2021/06/05 18:18:23;;;;;;;2.43;1.10;;;;;;;22.97;55.97;98199.31;8485630;28;20221;-70
2021/06/05 18:22:25;;;;;;;2.50;1.30;;;;;;;23.00;56.08;98206.16;8484923;28;20211;-71
2021/06/05 18:26:30;;;;;;;2.73;1.30;;;;;;;22.97;56.43;98196.69;8485215;28;20391;-70
2021/06/05 18:30:36;;;;;;;2.10;1.10;;;;;;;22.97;56.43;98204.59;8484757;28;20204;-70
2021/06/05 18:34:40;;;;;;;4.23;1.53;;;;;;;22.71;57.57;98208.78;8484864;28;20198;-70
2021/06/05 18:38:43;;;;;;;1.40;1.10;;;;;;;22.67;57.44;98229.34;8485210;28;20560;-69
2021/06/05 18:42:45;;;;;;;5.67;1.40;;;;;;;22.71;56.98;98227.28;8485071;28;20201;-70
2021/06/05 18:46:48;;;;;;;6.87;1.60;;;;;;;22.90;56.29;98237.00;8484368;28;20233;-70
2021/06/05 18:50:53;;;;;;;3.30;1.30;;;;;;;22.88;56.20;98236.31;8484640;28;20205;-69
2021/06/05 18:54:56;;;;;;;3.00;1.27;;;;;;;22.89;55.93;98238.00;8483482;28;20213;-69
2021/06/05 18:58:58;;;;;;;5.63;1.30;;;;;;;22.83;56.30;98245.47;8450544;28;20229;-70
2021/06/05 19:03:01;;;;;;;3.93;1.40;;;;;;;22.85;55.91;98240.06;8481506;28;20197;-69
2021/06/05 19:07:05;;;;;;;3.37;1.00;;;;;;;22.85;55.78;98255.91;8483875;28;20209;-70
2021/06/05 19:11:09;;;;;;;1.73;1.20;;;;;;;22.81;55.82;98265.09;8483763;28;20207;-70
2021/06/05 19:15:13;;;;;;;1.67;1.17;;;;;;;22.87;54.86;98274.25;8483969;28;20212;-70
2021/06/05 19:19:16;;;;;;;1.57;1.10;;;;;;;22.86;54.89;98270.75;8483557;28;20535;-70
2021/06/05 19:23:32;;;;;;;2.53;1.17;;;;;;;22.77;54.63;98269.81;8483087;28;20201;-69
2021/06/05 19:27:35;;;;;;;3.23;1.10;;;;;;;22.81;54.85;98278.28;8483776;28;20205;-70
2021/06/05 19:31:39;;;;;;;4.60;1.17;;;;;;;22.80;54.59;98289.81;8482858;28;20204;-70
2021/06/05 19:35:42;;;;;;;2.57;1.00;;;;;;;22.82;54.31;98296.59;8483186;28;20203;-71
2021/06/05 19:39:46;;;;;;;3.83;1.13;;;;;;;22.81;54.53;98300.22;8483132;28;20228;-68
2021/06/05 19:43:50;;;;;;;6.07;1.80;;;;;;;22.83;54.55;98303.56;8483379;28;20201;-67
2021/06/05 19:47:52;;;;;;;4.03;1.43;;;;;;;22.80;55.59;98317.03;8483492;28;20247;-66
2021/06/05 19:51:59;;;;;;;2.87;1.40;;;;;;;22.75;56.18;98307.84;8483101;28;20198;-65
2021/06/05 19:56:08;;;;;;;2.83;1.27;;;;;;;22.73;55.88;98318.56;8483008;28;20520;-65
2021/06/05 20:00:16;;;;;;;3.63;2.23;;;;;;;22.57;56.34;98307.69;8482823;28;20224;-67
2021/06/05 20:04:19;;;;;;;4.33;1.90;;;;;;;22.59;56.90;98303.94;8482783;28;20201;-65
2021/06/05 20:08:21;;;;;;;3.13;1.70;;;;;;;22.62;57.33;98318.69;8482722;28;20204;-67
2021/06/05 20:12:25;;;;;;;3.20;1.80;;;;;;;22.59;57.85;98321.59;8482707;28;20202;-67
2021/06/05 20:16:27;;;;;;;3.47;2.30;;;;;;;22.56;58.86;98319.22;8482861;28;20201;-67
2021/06/05 20:20:31;;;;;;;6.07;2.70;;;;;;;22.50;59.72;98325.03;8482510;28;20535;-67
2021/06/05 20:24:36;;;;;;;6.53;3.57;;;;;;;22.43;60.87;98312.38;8482455;28;20200;-67
2021/06/05 20:28:43;;;;;;;7.27;4.10;;;;;;;22.29;61.89;98314.56;8482535;28;20398;-67